Time;durP1;ratioP1;P1;durP2;ratioP2;P2;SDS_P1;SDS_P2;PMS_P1;PMS_P2;Temp;Humidity;BMP_temperature;BMP_pressure;BME280_temperature;BME280_humidity;BME280_pressure;Samples;Min_cycle;Max_cycle;Signal;HPM_P1;HPM_P2
2021/06/05 00:01:38;;;;;;;;;;;17.30;99.90;;;;;;4954598;28;20389;-77
2021/06/05 00:04:04;;;;;;;;;;;17.30;99.90;;;;;;4955634;28;19913;-77
2021/06/05 00:06:30;;;;;;;;;;;17.30;99.90;;;;;;4954292;29;19906;-77
2021/06/05 00:08:56;;;;;;;;;;;17.30;99.90;;;;;;4954260;28;19957;-77
2021/06/05 00:11:22;;;;;;;;;;;17.20;99.90;;;;;;4954032;28;19953;-77
2021/06/05 00:13:49;;;;;;;;;;;17.20;99.90;;;;;;4953874;28;19949;-77
2021/06/05 00:16:20;;;;;;;;;;;17.30;99.90;;;;;;4955241;28;20273;-77
2021/06/05 00:18:47;;;;;;;;;;;17.30;99.90;;;;;;4953936;28;19906;-77
2021/06/05 00:21:13;;;;;;;;;;;17.20;99.90;;;;;;4954002;28;19910;-77
2021/06/05 00:23:39;;;;;;;;;;;17.20;99.90;;;;;;4954013;28;19913;-77
2021/06/05 00:26:05;;;;;;;;;;;17.10;99.90;;;;;;4955215;28;19906;-77
2021/06/05 00:28:31;;;;;;;;;;;17.00;99.90;;;;;;4953485;28;20270;-77
2021/06/05 00:30:57;;;;;;;;;;;17.00;99.90;;;;;;4953997;28;20164;-77
2021/06/05 00:33:23;;;;;;;;;;;17.00;99.90;;;;;;4955219;28;19910;-77
2021/06/05 00:35:48;;;;;;;;;;;16.90;99.90;;;;;;4953831;28;19906;-77
2021/06/05 00:38:14;;;;;;;;;;;16.90;99.90;;;;;;4953767;28;19907;-77
2021/06/05 00:40:41;;;;;;;;;;;16.80;99.90;;;;;;4953342;28;19916;-77
2021/06/05 00:43:08;;;;;;;;;;;16.80;99.90;;;;;;4953766;28;20258;-77
2021/06/05 00:45:36;;;;;;;;;;;16.80;99.90;;;;;;4954722;28;19946;-77
2021/06/05 00:48:02;;;;;;;;;;;16.90;99.90;;;;;;4954711;28;19957;-77
2021/06/05 00:50:28;;;;;;;;;;;16.90;99.90;;;;;;4953603;28;20374;-77
2021/06/05 00:52:54;;;;;;;;;;;16.90;99.90;;;;;;4953427;28;19913;-77
2021/06/05 00:55:22;;;;;;;;;;;16.90;99.90;;;;;;4954753;28;19913;-77
2021/06/05 00:57:48;;;;;;;;;;;17.00;99.90;;;;;;4953243;29;20412;-77
2021/06/05 01:00:22;;;;;;;;;;;17.00;99.90;;;;;;4954530;28;19918;-77
2021/06/05 01:02:48;;;;;;;;;;;17.00;99.90;;;;;;4953298;28;19906;-77
2021/06/05 01:05:13;;;;;;;;;;;17.00;99.90;;;;;;4953310;28;20008;-77
2021/06/05 01:07:40;;;;;;;;;;;17.00;99.90;;;;;;4953351;28;19907;-77
2021/06/05 01:10:05;;;;;;;;;;;17.00;99.90;;;;;;4953079;28;19906;-77
2021/06/05 01:12:40;;;;;;;;;;;17.00;99.90;;;;;;4954568;28;20358;-77
2021/06/05 01:15:09;;;;;;;;;;;17.00;99.90;;;;;;4954489;28;19962;-77
2021/06/05 01:17:36;;;;;;;;;;;17.00;99.90;;;;;;4953246;28;19961;-77
2021/06/05 01:20:08;;;;;;;;;;;17.00;99.90;;;;;;4954371;28;20362;-77
2021/06/05 01:22:34;;;;;;;;;;;17.10;99.90;;;;;;4953200;28;19906;-77
2021/06/05 01:25:05;;;;;;;;;;;17.20;99.90;;;;;;4954550;28;20028;-77
2021/06/05 01:27:33;;;;;;;;;;;17.20;99.90;;;;;;4954421;28;19906;-77
2021/06/05 01:30:00;;;;;;;;;;;17.30;99.90;;;;;;4954453;28;19907;-77
2021/06/05 01:32:27;;;;;;;;;;;17.20;99.90;;;;;;4953115;28;20392;-77
2021/06/05 01:34:55;;;;;;;;;;;17.20;99.90;;;;;;4954294;28;19997;-77
2021/06/05 01:37:20;;;;;;;;;;;17.20;99.90;;;;;;4953442;28;19993;-77
2021/06/05 01:39:47;;;;;;;;;;;17.30;99.90;;;;;;4954208;28;19917;-77
2021/06/05 01:42:15;;;;;;;;;;;17.30;99.90;;;;;;4957492;28;19910;-77
2021/06/05 01:44:41;;;;;;;;;;;17.40;99.90;;;;;;4956978;29;19914;-77
2021/06/05 01:47:09;;;;;;;;;;;17.50;99.90;;;;;;4957840;28;19907;-77
2021/06/05 01:49:34;;;;;;;;;;;17.60;99.90;;;;;;4956350;28;20281;-77
2021/06/05 01:52:03;;;;;;;;;;;17.60;99.90;;;;;;4956715;28;19993;-77
2021/06/05 01:54:28;;;;;;;;;;;17.60;99.90;;;;;;4957821;28;19906;-77
2021/06/05 01:56:56;;;;;;;;;;;17.70;99.90;;;;;;4957843;28;19913;-77
2021/06/05 01:59:22;;;;;;;;;;;17.70;99.90;;;;;;4956443;28;19914;-77
2021/06/05 02:01:48;;;;;;;;;;;17.60;99.90;;;;;;4956528;28;19934;-77
2021/06/05 02:04:14;;;;;;;;;;;17.50;99.90;;;;;;4956576;28;19910;-77
2021/06/05 02:06:39;;;;;;;;;;;17.50;99.90;;;;;;4956683;28;19989;-77
2021/06/05 02:09:09;;;;;;;;;;;17.50;99.90;;;;;;4957601;28;19957;-77
2021/06/05 02:11:40;;;;;;;;;;;17.60;99.90;;;;;;4957439;28;19993;-77
2021/06/05 02:14:14;;;;;;;;;;;17.60;99.90;;;;;;4957544;28;19922;-77
2021/06/05 02:16:42;;;;;;;;;;;17.60;99.90;;;;;;4956312;28;20084;-77
2021/06/05 02:19:10;;;;;;;;;;;17.70;99.90;;;;;;4957365;28;19921;-77
2021/06/05 02:21:36;;;;;;;;;;;17.70;99.90;;;;;;4956185;28;19907;-77
2021/06/05 02:24:04;;;;;;;;;;;17.60;99.90;;;;;;4957529;28;19914;-77
2021/06/05 02:26:32;;;;;;;;;;;17.50;99.90;;;;;;4956255;28;19913;-77
2021/06/05 02:28:58;;;;;;;;;;;17.60;99.90;;;;;;4955996;29;19906;-77
2021/06/05 02:31:24;;;;;;;;;;;17.60;99.90;;;;;;4956054;28;20009;-77
2021/06/05 02:33:50;;;;;;;;;;;17.60;99.90;;;;;;4956110;28;19913;-77
2021/06/05 02:36:16;;;;;;;;;;;17.60;99.90;;;;;;4957192;28;19907;-77
2021/06/05 02:38:45;;;;;;;;;;;17.60;99.90;;;;;;4955950;28;19932;-77
2021/06/05 02:41:12;;;;;;;;;;;17.60;99.90;;;;;;4955751;28;19985;-77
2021/06/05 02:43:38;;;;;;;;;;;17.70;99.90;;;;;;4956892;28;19962;-77
2021/06/05 02:46:10;;;;;;;;;;;17.70;99.90;;;;;;4955564;28;19954;-77
2021/06/05 02:48:39;;;;;;;;;;;17.60;99.90;;;;;;4956813;28;19906;-77
2021/06/05 02:51:05;;;;;;;;;;;17.60;99.90;;;;;;4955397;28;19906;-77
2021/06/05 02:53:30;;;;;;;;;;;17.60;99.90;;;;;;4955635;28;20338;-77
2021/06/05 02:55:56;;;;;;;;;;;17.60;99.90;;;;;;4956879;28;19977;-77
2021/06/05 02:58:21;;;;;;;;;;;17.60;99.90;;;;;;4956549;28;20311;-77
2021/06/05 03:00:48;;;;;;;;;;;17.50;99.90;;;;;;4955356;28;20008;-77
2021/06/05 03:03:14;;;;;;;;;;;17.50;99.90;;;;;;4956025;28;20289;-77
2021/06/05 03:05:40;;;;;;;;;;;17.50;99.90;;;;;;4955527;28;19910;-77
2021/06/05 03:08:07;;;;;;;;;;;17.50;99.90;;;;;;4955210;28;19913;-77
2021/06/05 03:10:33;;;;;;;;;;;17.50;99.90;;;;;;4956446;28;19917;-77
2021/06/05 03:12:59;;;;;;;;;;;17.60;99.90;;;;;;4956405;28;19913;-77
2021/06/05 03:15:25;;;;;;;;;;;17.60;99.90;;;;;;4955168;28;19906;-77
2021/06/05 03:17:50;;;;;;;;;;;17.70;99.90;;;;;;4956501;28;20008;-77
2021/06/05 03:20:17;;;;;;;;;;;17.70;99.90;;;;;;4954944;28;19917;-77
2021/06/05 03:22:44;;;;;;;;;;;17.70;99.90;;;;;;4956377;28;20374;-77
2021/06/05 03:25:10;;;;;;;;;;;17.70;99.90;;;;;;4956350;28;20370;-76
2021/06/05 03:27:35;;;;;;;;;;;17.70;99.90;;;;;;4956182;28;19944;-77
2021/06/05 03:30:01;;;;;;;;;;;17.60;99.90;;;;;;4954778;28;19906;-77
2021/06/05 03:32:26;;;;;;;;;;;17.50;99.90;;;;;;4954910;28;19906;-77
2021/06/05 03:34:52;;;;;;;;;;;17.40;99.90;;;;;;4956028;28;19932;-77
2021/06/05 03:37:17;;;;;;;;;;;17.40;99.90;;;;;;4954917;28;20036;-77
2021/06/05 03:39:43;;;;;;;;;;;17.40;99.90;;;;;;4954387;28;20457;-77
2021/06/05 03:42:09;;;;;;;;;;;17.40;99.90;;;;;;4956052;28;19961;-76
2021/06/05 03:44:34;;;;;;;;;;;17.40;99.90;;;;;;4955918;28;20377;-77
2021/06/05 03:47:00;;;;;;;;;;;17.30;99.90;;;;;;4954691;28;19913;-76
2021/06/05 03:49:25;;;;;;;;;;;17.30;99.90;;;;;;4954787;28;19907;-77
2021/06/05 03:51:51;;;;;;;;;;;17.30;99.90;;;;;;4956223;28;19929;-76
2021/06/05 03:54:17;;;;;;;;;;;17.20;99.90;;;;;;4955729;28;19907;-77
2021/06/05 03:56:42;;;;;;;;;;;17.30;99.90;;;;;;4954049;28;19960;-77
2021/06/05 03:59:09;;;;;;;;;;;17.30;99.90;;;;;;4954082;28;19914;-77
2021/06/05 04:01:34;;;;;;;;;;;17.30;99.90;;;;;;4954146;28;19906;-76
2021/06/05 04:04:00;;;;;;;;;;;17.20;99.90;;;;;;4954950;28;19913;-76
2021/06/05 04:06:26;;;;;;;;;;;17.20;99.90;;;;;;4954376;28;19953;-77
2021/06/05 04:08:52;;;;;;;;;;;17.20;99.90;;;;;;4954159;28;19907;-77
2021/06/05 04:11:18;;;;;;;;;;;17.30;99.90;;;;;;4954037;28;20064;-77
2021/06/05 04:13:45;;;;;;;;;;;17.40;99.90;;;;;;4955655;28;19913;-77
2021/06/05 04:16:12;;;;;;;;;;;17.40;99.90;;;;;;4958529;28;19917;-77
2021/06/05 04:18:38;;;;;;;;;;;17.40;99.90;;;;;;5005884;28;20000;-77
2021/06/05 04:21:04;;;;;;;;;;;17.40;99.90;;;;;;5006691;28;19910;-77
2021/06/05 04:23:30;;;;;;;;;;;17.40;99.90;;;;;;5005950;28;19906;-77
2021/06/05 04:25:55;;;;;;;;;;;17.40;99.90;;;;;;5005977;28;19933;-77
2021/06/05 04:28:22;;;;;;;;;;;17.50;99.90;;;;;;4973476;28;19906;-76
2021/06/05 04:30:47;;;;;;;;;;;17.50;99.90;;;;;;4975769;28;19906;-78
2021/06/05 04:33:14;;;;;;;;;;;17.60;99.90;;;;;;5007602;28;19917;-78
2021/06/05 04:35:40;;;;;;;;;;;17.60;99.90;;;;;;5006674;28;19906;-77
2021/06/05 04:38:06;;;;;;;;;;;17.70;99.90;;;;;;4977959;28;19969;-77
2021/06/05 04:40:31;;;;;;;;;;;17.70;99.90;;;;;;5006939;28;19910;-77
2021/06/05 04:42:57;;;;;;;;;;;17.90;99.90;;;;;;4976099;28;20354;-77
2021/06/05 04:45:23;;;;;;;;;;;18.10;99.90;;;;;;4978269;28;19945;-77
2021/06/05 04:47:49;;;;;;;;;;;18.40;99.90;;;;;;4979006;28;19912;-77
2021/06/05 04:50:15;;;;;;;;;;;19.80;99.90;;;;;;5004606;28;19945;-77
2021/06/05 04:52:41;;;;;;;;;;;21.20;99.90;;;;;;4968582;28;20298;-78
2021/06/05 04:55:07;;;;;;;;;;;21.60;99.90;;;;;;4998207;28;19913;-78
2021/06/05 04:57:32;;;;;;;;;;;21.50;99.90;;;;;;4979227;28;19993;-77
2021/06/05 04:59:58;;;;;;;;;;;21.50;99.90;;;;;;4976852;28;19916;-77
2021/06/05 05:02:24;;;;;;;;;;;21.30;99.90;;;;;;4978495;28;20046;-78
2021/06/05 05:04:49;;;;;;;;;;;20.80;99.90;;;;;;4970002;28;20047;-78
2021/06/05 05:07:15;;;;;;;;;;;20.40;99.90;;;;;;4969337;28;20035;-77
2021/06/05 05:09:41;;;;;;;;;;;20.10;99.90;;;;;;4998651;28;20066;-78
2021/06/05 05:12:06;;;;;;;;;;;20.00;99.90;;;;;;4979105;28;20037;-77
2021/06/05 05:14:32;;;;;;;;;;;20.00;99.90;;;;;;4978559;28;20023;-77
2021/06/05 05:16:58;;;;;;;;;;;20.00;99.90;;;;;;4978085;28;20574;-77
2021/06/05 05:19:23;;;;;;;;;;;20.10;99.90;;;;;;4978554;28;20044;-78
2021/06/05 05:21:49;;;;;;;;;;;20.50;99.90;;;;;;4976805;28;19913;-78
2021/06/05 05:24:14;;;;;;;;;;;20.70;99.90;;;;;;4977108;28;20030;-77
2021/06/05 05:26:40;;;;;;;;;;;21.40;99.90;;;;;;4977410;28;19913;-78
2021/06/05 05:29:05;;;;;;;1.40;1.33;;;23.90;99.90;;;;;;4979286;28;19945;-78
2021/06/05 05:31:31;;;;;;;3.35;1.77;;;26.00;99.90;;;;;;4975953;28;20031;-78
2021/06/05 05:33:57;;;;;;;2.25;1.02;;;27.60;99.90;;;;;;4978858;28;20053;-76
2021/06/05 05:36:26;;;;;;;1.53;1.10;;;27.70;99.90;;;;;;4978173;28;20030;-78
2021/06/05 05:38:53;;;;;;;3.15;1.08;;;28.70;99.90;;;;;;4976395;28;20034;-77
2021/06/05 05:41:19;;;;;;;;;;;30.30;99.90;;;;;;4979262;28;19917;-77
2021/06/05 05:43:45;;;;;;;;;;;31.10;99.90;;;;;;4979793;28;20047;-77
2021/06/05 05:46:11;;;;;;;3.20;1.20;;;31.20;99.90;;;;;;4978351;28;20035;-78
2021/06/05 05:48:38;;;;;;;2.05;1.30;;;30.80;99.90;;;;;;4976899;28;20138;-77
2021/06/05 05:51:04;;;;;;;;;;;31.20;99.90;;;;;;4964672;28;20031;-78
2021/06/05 05:53:30;;;;;;;2.58;1.45;;;31.60;99.90;;;;;;4967616;28;20377;-77
2021/06/05 05:55:57;;;;;;;2.63;1.40;;;31.10;99.90;;;;;;4972283;28;20019;-78
2021/06/05 05:58:24;;;;;;;7.60;1.58;;;30.60;99.90;;;;;;4977679;28;20039;-76
2021/06/05 06:00:51;;;;;;;1.55;1.08;;;28.20;99.90;;;;;;4975700;28;20525;-77
2021/06/05 06:03:18;;;;;;;;;;;25.90;99.90;;;;;;4977601;28;20034;-77
2021/06/05 06:05:44;;;;;;;;;;;24.50;99.90;;;;;;5010355;28;20038;-77
2021/06/05 06:08:11;;;;;;;;;;;23.60;99.90;;;;;;5008358;28;19993;-77
2021/06/05 06:10:37;;;;;;;;;;;22.80;99.90;;;;;;4978147;28;19941;-78
2021/06/05 06:13:03;;;;;;;;;;;22.40;99.90;;;;;;5008243;28;19910;-77
2021/06/05 06:15:29;;;;;;;;;;;22.00;99.90;;;;;;4967455;28;19957;-77
2021/06/05 06:17:55;;;;;;;;;;;21.60;99.90;;;;;;4968874;28;20330;-77
2021/06/05 06:20:23;;;;;;;;;;;21.30;99.90;;;;;;4999967;28;19916;-77
2021/06/05 06:22:48;;;;;;;;;;;20.90;99.90;;;;;;4970194;28;19907;-77
2021/06/05 06:25:17;;;;;;;;;;;20.70;99.90;;;;;;5001851;28;20251;-78
2021/06/05 06:27:43;;;;;;;;;;;20.50;99.90;;;;;;4968957;28;19910;-77
2021/06/05 06:30:09;;;;;;;;;;;20.40;99.90;;;;;;4964520;28;19913;-77
2021/06/05 06:32:34;;;;;;;;;;;20.30;99.90;;;;;;4963579;28;20356;-77
2021/06/05 06:35:00;;;;;;;;;;;20.20;99.90;;;;;;4961613;28;19929;-79
2021/06/05 06:37:25;;;;;;;;;;;20.10;99.90;;;;;;4958433;28;19906;-78
2021/06/05 06:39:51;;;;;;;;;;;20.00;99.90;;;;;;4960269;28;20378;-76
2021/06/05 06:42:16;;;;;;;;;;;19.90;99.90;;;;;;4959969;28;20393;-78
2021/06/05 06:44:42;;;;;;;;;;;20.00;99.90;;;;;;4960894;29;19913;-77
2021/06/05 06:47:08;;;;;;;;;;;20.00;99.90;;;;;;4958996;28;19907;-77
2021/06/05 06:49:33;;;;;;;;;;;20.00;99.90;;;;;;4960967;28;19911;-77
2021/06/05 06:51:59;;;;;;;;;;;20.00;99.90;;;;;;4958715;28;19907;-78
2021/06/05 06:54:24;;;;;;;;;;;20.10;99.90;;;;;;4962767;28;19911;-77
2021/06/05 06:56:50;;;;;;;;;;;20.20;99.90;;;;;;4959698;28;20154;-77
2021/06/05 06:59:16;;;;;;;;;;;20.20;99.90;;;;;;4957796;28;19993;-77
2021/06/05 07:01:41;;;;;;;;;;;20.20;99.90;;;;;;4958519;28;19910;-77
2021/06/05 07:04:07;;;;;;;;;;;20.10;99.90;;;;;;4959983;28;19906;-77
2021/06/05 07:06:32;;;;;;;;;;;20.20;99.90;;;;;;4959644;28;20041;-78
2021/06/05 07:08:58;;;;;;;;;;;20.20;99.90;;;;;;4959167;28;19961;-78
2021/06/05 07:11:30;;;;;;;;;;;20.10;99.90;;;;;;4962480;28;19911;-77
2021/06/05 07:13:57;;;;;;;;;;;20.00;99.90;;;;;;4970685;28;19906;-77
2021/06/05 07:16:23;;;;;;;;;;;20.00;99.90;;;;;;4974655;28;19910;-78
2021/06/05 07:18:49;;;;;;;;;;;20.10;99.90;;;;;;4973838;28;19906;-77
2021/06/05 07:21:15;;;;;;;;;;;20.10;99.90;;;;;;4970492;28;20412;-78
2021/06/05 07:23:42;;;;;;;;;;;20.10;99.90;;;;;;4967889;28;19961;-77
2021/06/05 07:26:13;;;;;;;;;;;20.10;99.90;;;;;;4966101;28;19910;-78
2021/06/05 07:28:42;;;;;;;;;;;20.20;99.90;;;;;;4972846;28;19913;-79
2021/06/05 07:31:08;;;;;;;;;;;20.20;99.90;;;;;;4973874;28;19906;-78
2021/06/05 07:33:34;;;;;;;;;;;20.30;99.90;;;;;;4984067;28;19910;-78
2021/06/05 07:35:59;;;;;;;;;;;20.30;99.90;;;;;;4978204;28;20428;-78
2021/06/05 07:38:26;;;;;;;;;;;20.40;99.90;;;;;;4978046;28;20000;-78
2021/06/05 07:40:52;;;;;;;;;;;20.40;99.90;;;;;;4979433;28;19910;-79
2021/06/05 07:43:19;;;;;;;;;;;20.40;99.90;;;;;;4977927;28;19906;-77
2021/06/05 07:45:44;;;;;;;;;;;20.40;99.90;;;;;;4979065;28;19907;-78
2021/06/05 07:48:10;;;;;;;;;;;20.40;99.90;;;;;;4978932;28;19906;-77
2021/06/05 07:50:36;;;;;;;;;;;20.40;99.90;;;;;;4977372;28;19906;-78
2021/06/05 07:53:01;;;;;;;;;;;20.40;99.90;;;;;;4977011;28;19906;-78
2021/06/05 07:55:27;;;;;;;;;;;20.40;99.90;;;;;;4977706;28;19906;-78
2021/06/05 07:57:52;;;;;;;;;;;20.40;99.90;;;;;;4977948;28;20440;-78
2021/06/05 08:00:20;;;;;;;;;;;20.30;99.90;;;;;;4977811;28;19910;-78
2021/06/05 08:02:46;;;;;;;;;;;20.40;99.90;;;;;;4977012;28;19957;-78
2021/06/05 08:05:11;;;;;;;;;;;20.30;99.90;;;;;;4976605;28;19910;-79
2021/06/05 08:07:37;;;;;;;;;;;20.30;99.90;;;;;;4978317;28;19906;-78
2021/06/05 08:10:04;;;;;;;;;;;20.40;99.90;;;;;;4977025;28;19909;-77
2021/06/05 08:12:29;;;;;;;;;;;20.60;99.90;;;;;;4977400;28;19956;-78
2021/06/05 08:14:55;;;;;;;;;;;20.70;99.90;;;;;;4977262;28;19906;-78
2021/06/05 08:17:20;;;;;;;;;;;20.90;99.90;;;;;;4976627;28;19910;-79
2021/06/05 08:19:46;;;;;;;;;;;20.90;99.90;;;;;;4974937;28;19980;-78
2021/06/05 08:22:12;;;;;;;;;;;20.90;99.90;;;;;;4974575;28;19906;-79
2021/06/05 08:24:37;;;;;;;;;;;20.90;99.90;;;;;;4976859;28;19911;-78
2021/06/05 08:27:03;;;;;;;;;;;20.80;99.90;;;;;;4974796;28;19921;-80
2021/06/05 08:29:28;;;;;;;4.80;2.70;;;20.90;99.90;;;;;;4975342;28;19981;-79
2021/06/05 08:31:54;;;;;;;2.33;1.70;;;21.00;99.90;;;;;;4975262;28;20022;-79
2021/06/05 08:34:20;;;;;;;6.72;3.60;;;21.00;99.90;;;;;;4975060;28;20036;-79
2021/06/05 08:36:46;;;;;;;11.80;3.42;;;21.10;99.90;;;;;;4975219;28;20027;-78
2021/06/05 08:39:13;;;;;;;14.85;3.55;;;21.30;99.90;;;;;;4975826;28;20106;-78
2021/06/05 08:41:40;;;;;;;;;;;21.30;99.90;;;;;;4974746;28;20009;-79
2021/06/05 08:44:15;;;;;;;;;;;21.30;99.90;;;;;;4973587;28;19996;-77
2021/06/05 08:46:42;;;;;;;;;;;21.50;99.90;;;;;;4973141;28;19906;-79
2021/06/05 08:49:19;;;;;;;;;;;21.50;99.90;;;;;;4973424;28;19929;-78
2021/06/05 08:51:52;;;;;;;;;;;21.70;99.90;;;;;;4975883;28;20365;-77
2021/06/05 08:54:18;;;;;;;;;;;22.00;99.90;;;;;;4973268;28;19921;-79
2021/06/05 08:56:45;;;;;;;;;;;22.30;99.90;;;;;;4974338;28;19914;-78
2021/06/05 08:59:14;;;;;;;;;;;22.40;99.90;;;;;;4973040;28;25054;-78
2021/06/05 09:01:42;;;;;;;;;;;22.40;99.90;;;;;;4975104;28;20278;-78
2021/06/05 09:04:10;;;;;;;;;;;22.50;99.90;;;;;;4976793;28;19906;-78
2021/06/05 09:06:35;;;;;;;;;;;22.50;99.90;;;;;;4976945;28;20444;-78
2021/06/05 09:09:05;;;;;;;;;;;22.50;99.90;;;;;;4974494;28;19909;-80
2021/06/05 09:11:31;;;;;;;;;;;22.50;99.90;;;;;;4975617;28;20027;-79
2021/06/05 09:13:56;;;;;;;;;;;22.30;99.90;;;;;;4974892;28;20413;-78
2021/06/05 09:16:24;;;;;;;;;;;21.90;99.90;;;;;;4974929;28;19913;-78
2021/06/05 09:18:51;;;;;;;;;;;21.70;99.90;;;;;;4975334;28;19906;-79
2021/06/05 09:21:30;;;;;;;;;;;21.50;99.90;;;;;;4975014;28;19972;-79
2021/06/05 09:24:11;;;;;;;;;;;21.30;99.90;;;;;;4970479;28;19938;-78
2021/06/05 09:26:36;;;;;;;;;;;21.30;99.90;;;;;;4974314;28;19918;-77
2021/06/05 09:29:07;;;;;;;;;;;21.20;99.90;;;;;;5005318;28;25122;-78
2021/06/05 09:31:32;;;;;;;;;;;21.10;99.90;;;;;;4974667;28;19916;-77
2021/06/05 09:33:57;;;;;;;;;;;21.00;99.90;;;;;;4973074;28;19988;-79
2021/06/05 09:36:24;;;;;;;;;;;20.80;99.90;;;;;;5006154;28;19921;-78
2021/06/05 09:38:57;;;;;;;;;;;20.90;99.90;;;;;;4972740;28;19906;-79
2021/06/05 09:41:38;;;;;;;;;;;21.00;99.90;;;;;;4960825;28;19910;-81
2021/06/05 09:44:11;;;;;;;;;;;20.90;99.90;;;;;;4974084;28;19914;-78
2021/06/05 09:46:37;;;;;;;;;;;21.00;99.90;;;;;;5004713;28;20352;-78
2021/06/05 09:49:15;;;;;;;;;;;21.00;99.90;;;;;;4971601;28;19906;-78
2021/06/05 09:51:41;;;;;;;;;;;20.90;99.90;;;;;;5004454;28;19906;-78
2021/06/05 09:54:13;;;;;;;;;;;20.90;99.90;;;;;;5004925;28;19906;-80
2021/06/05 09:56:40;;;;;;;;;;;20.90;99.90;;;;;;4973219;28;20393;-78
2021/06/05 09:59:07;;;;;;;;;;;20.90;99.90;;;;;;4971569;28;19914;-78
2021/06/05 10:01:34;;;;;;;;;;;21.00;99.90;;;;;;4973427;28;19913;-80
2021/06/05 10:04:17;;;;;;;;;;;21.30;99.90;;;;;;5009643;28;19906;-79
2021/06/05 10:06:42;;;;;;;;;;;21.50;99.90;;;;;;4977079;28;19906;-78
2021/06/05 10:09:26;;;;;;;;;;;22.00;99.90;;;;;;4976473;28;19913;-79
2021/06/05 10:11:52;;;;;;;;;;;22.30;99.90;;;;;;4978329;28;20417;-79
2021/06/05 10:14:29;;;;;;;;;;;22.70;99.90;;;;;;4978034;28;19996;-80
2021/06/05 10:17:01;;;;;;;;;;;22.90;99.90;;;;;;4977158;28;20342;-78
2021/06/05 10:19:33;;;;;;;6.32;3.38;;;22.90;99.90;;;;;;5008536;28;19910;-79
2021/06/05 10:21:59;;;;;;;5.32;3.72;;;22.90;99.90;;;;;;4977715;28;20471;-79
2021/06/05 10:24:30;;;;;;;6.50;3.60;;;23.00;99.90;;;;;;4977248;28;20031;-79
2021/06/05 10:26:58;;;;;;;4.70;3.15;;;23.10;99.90;;;;;;4977062;28;20549;-78
2021/06/05 10:29:29;;;;;;;3.22;2.92;;;23.00;99.90;;;;;;4976628;28;20118;-79
2021/06/05 10:31:58;;;;;;;3.30;2.90;;;22.80;99.90;;;;;;4977017;28;20371;-79
2021/06/05 10:34:39;;;;;;;5.50;3.20;;;22.60;99.90;;;;;;4977448;28;20051;-77
2021/06/05 10:37:05;;;;;;;;;;;22.50;99.90;;;;;;4976095;28;20286;-79
2021/06/05 10:39:33;;;;;;;;;;;22.40;99.90;;;;;;4977264;28;20045;-78
2021/06/05 10:41:59;;;;;;;;;;;22.40;99.90;;;;;;4977020;28;20035;-78
2021/06/05 10:44:24;;;;;;;;;;;22.50;99.90;;;;;;4975774;28;19912;-77
2021/06/05 10:47:10;;;;;;;;;;;22.40;99.90;;;;;;4976993;28;20467;-78
2021/06/05 10:49:42;;;;;;;;;;;22.50;99.90;;;;;;4982228;28;20148;-79
2021/06/05 10:52:26;;;;;;;;;;;22.30;99.90;;;;;;4975575;28;20406;-78
2021/06/05 10:54:54;;;;;;;;;;;22.50;99.90;;;;;;4975583;28;20030;-78
2021/06/05 10:57:20;;;;;;;;;;;22.50;99.90;;;;;;4976778;28;20036;-78
2021/06/05 10:59:52;;;;;;;;;;;22.80;99.90;;;;;;4976029;28;20255;-78
2021/06/05 11:02:36;;;;;;;;;;;23.20;99.90;;;;;;4974988;28;19930;-77
2021/06/05 11:05:29;;;;;;;;;;;23.90;99.90;;;;;;4975548;28;19968;-77
2021/06/05 11:08:18;;;;;;;3.05;2.47;;;24.50;99.90;;;;;;4975022;28;20342;-78
2021/06/05 11:10:55;;;;;;;4.40;2.55;;;25.80;99.90;;;;;;4974860;28;20029;-79
2021/06/05 11:13:36;;;;;;;;;;;26.80;99.90;;;;;;4975617;28;20038;-79
2021/06/05 11:16:17;;;;;;;4.00;2.75;;;27.70;99.90;;;;;;4976644;28;19985;-77
2021/06/05 11:18:58;;;;;;;4.90;2.55;;;27.40;99.90;;;;;;4975045;28;20118;-79
2021/06/05 11:21:24;;;;;;;3.22;2.50;;;27.20;99.90;;;;;;4974633;28;20035;-77
2021/06/05 11:23:56;;;;;;;3.07;2.77;;;27.10;99.90;;;;;;4964109;28;19977;-78
2021/06/05 11:26:39;;;;;;;6.68;2.33;;;27.10;99.90;;;;;;4965863;28;20098;-79
2021/06/05 11:29:20;;;;;;;3.42;2.45;;;26.60;99.90;;;;;;4966943;28;20019;-80
2021/06/05 11:31:55;;;;;;;3.10;2.42;;;26.80;99.90;;;;;;4965962;28;19992;-78
2021/06/05 11:34:30;;;;;;;3.80;2.13;;;26.40;99.90;;;;;;4965170;28;20046;-78
2021/06/05 11:36:59;;;;;;;2.25;2.05;;;26.00;99.90;;;;;;4965196;28;20023;-80
2021/06/05 11:39:24;;;;;;;;;;;25.90;99.90;;;;;;4962923;28;20035;-80
2021/06/05 11:41:57;;;;;;;;;;;25.90;99.90;;;;;;4967692;28;20041;-80
2021/06/05 11:44:30;;;;;;;;;;;26.10;99.90;;;;;;4976072;28;20431;-78
2021/06/05 11:46:58;;;;;;;;;;;25.60;99.90;;;;;;4967683;28;20030;-79
2021/06/05 11:49:42;;;;;;;;;;;25.20;99.90;;;;;;4966362;28;20062;-80
2021/06/05 11:52:27;;;;;;;;;;;24.90;99.90;;;;;;4963964;28;20045;-78
2021/06/05 11:54:53;;;;;;;;;;;24.40;99.90;;;;;;4954828;28;19934;-80
2021/06/05 11:57:22;;;;;;;;;;;23.90;99.90;;;;;;4956056;28;20062;-80
2021/06/05 11:59:48;;;;;;;;;;;23.50;99.90;;;;;;4955274;28;20041;-78
2021/06/05 12:02:27;;;;;;;;;;;23.20;99.90;;;;;;4954907;28;19910;-79
2021/06/05 12:04:56;;;;;;;;;;;22.70;99.90;;;;;;4956699;28;19913;-79
2021/06/05 12:07:30;;;;;;;;;;;22.00;99.90;;;;;;4956781;28;20429;-80
2021/06/05 12:10:00;;;;;;;;;;;21.30;99.90;;;;;;4957545;28;20013;-80
2021/06/05 12:12:48;;;;;;;;;;;20.80;99.90;;;;;;4956190;28;19906;-80
2021/06/05 12:15:23;;;;;;;;;;;20.50;99.90;;;;;;4948061;29;19917;-78
2021/06/05 12:17:56;;;;;;;;;;;20.30;99.90;;;;;;4956367;28;19906;-80
2021/06/05 12:20:58;;;;;;;;;;;20.20;99.90;;;;;;4967619;28;19922;-78
2021/06/05 12:23:26;;;;;;;;;;;20.30;99.90;;;;;;4946450;28;19921;-79
2021/06/05 12:25:58;;;;;;;;;;;20.50;99.90;;;;;;4957527;28;19912;-80
2021/06/05 12:28:26;;;;;;;;;;;20.90;99.90;;;;;;4956029;28;19984;-79
2021/06/05 12:30:52;;;;;;;;;;;21.20;99.90;;;;;;4957923;28;19906;-78
2021/06/05 12:33:26;;;;;;;;;;;21.30;99.90;;;;;;4960985;28;20377;-78
2021/06/05 12:35:52;;;;;;;;;;;21.00;99.90;;;;;;4957328;28;19993;-80
2021/06/05 12:38:50;;;;;;;;;;;20.80;99.90;;;;;;4957595;28;19953;-79
2021/06/05 12:41:21;;;;;;;;;;;20.70;99.90;;;;;;4948358;29;20306;-78
2021/06/05 12:43:47;;;;;;;;;;;20.40;99.90;;;;;;4957679;28;19907;-79
2021/06/05 12:46:16;;;;;;;;;;;20.30;99.90;;;;;;4956643;28;19941;-78
2021/06/05 12:48:42;;;;;;;;;;;20.40;99.90;;;;;;4957585;28;19914;-80
2021/06/05 12:51:08;;;;;;;;;;;20.40;99.90;;;;;;4956856;28;19906;-79
2021/06/05 12:53:34;;;;;;;;;;;20.20;99.90;;;;;;4956542;28;20387;-80
2021/06/05 12:56:04;;;;;;;;;;;20.20;99.90;;;;;;4956015;28;19918;-79
2021/06/05 12:58:42;;;;;;;;;;;20.30;99.90;;;;;;4956717;28;19915;-78
2021/06/05 13:01:28;;;;;;;;;;;20.30;99.90;;;;;;4956917;28;19911;-80
2021/06/05 13:03:54;;;;;;;;;;;20.50;99.90;;;;;;4958700;28;20372;-80
2021/06/05 13:06:23;;;;;;;;;;;20.80;99.90;;;;;;4955450;28;19911;-80
2021/06/05 13:08:50;;;;;;;;;;;21.30;99.90;;;;;;4955350;28;19913;-79
2021/06/05 13:11:34;;;;;;;;;;;21.70;99.90;;;;;;4955389;28;19914;-79
2021/06/05 13:14:26;;;;;;;;;;;22.10;99.90;;;;;;4955337;28;20389;-80
2021/06/05 13:17:24;;;;;;;;;;;22.40;99.90;;;;;;4939946;29;19919;-80
2021/06/05 13:19:50;;;;;;;1.10;1.00;;;22.60;99.90;;;;;;4943942;28;20348;-80
2021/06/05 13:22:15;;;;;;;;;;;22.70;99.90;;;;;;4956277;28;20017;-80
2021/06/05 13:25:15;;;;;;;3.65;1.10;;;22.80;99.90;;;;;;4954837;28;20028;-79
2021/06/05 13:28:01;;;;;;;3.73;1.20;;;22.80;99.90;;;;;;4954472;28;20027;-79
2021/06/05 13:30:47;;;;;;;3.53;1.02;;;22.70;99.90;;;;;;4954687;29;20058;-78
2021/06/05 13:33:25;;;;;;;;;;;22.80;99.90;;;;;;4955432;28;20385;-80
2021/06/05 13:35:53;;;;;;;5.95;1.10;;;22.80;99.90;;;;;;4954170;28;19957;-80
2021/06/05 13:38:23;;;;;;;1.50;1.35;;;23.10;99.90;;;;;;4957512;28;20031;-79
2021/06/05 13:40:52;;;;;;;1.50;1.23;;;23.50;99.90;;;;;;4960421;28;19924;-80
2021/06/05 13:43:18;;;;;;;1.50;1.40;;;23.90;99.90;;;;;;4967654;28;20030;-80
2021/06/05 13:45:43;;;;;;;1.37;1.23;;;24.80;99.90;;;;;;4965694;28;20027;-78
2021/06/05 13:48:10;;;;;;;2.33;1.47;;;25.50;99.90;;;;;;4967649;28;20023;-80
2021/06/05 13:50:36;;;;;;;1.70;1.20;;;25.80;99.90;;;;;;4966917;28;20122;-78
2021/06/05 13:53:10;;;;;;;5.05;1.65;;;25.80;99.90;;;;;;4965778;28;19922;-80
2021/06/05 13:55:46;;;;;;;2.35;1.30;;;25.40;99.90;;;;;;4949386;28;20129;-79
2021/06/05 13:58:12;;;;;;;1.67;1.25;;;24.90;99.90;;;;;;4966373;28;19930;-78
2021/06/05 14:00:40;;;;;;;2.92;1.00;;;24.00;99.90;;;;;;4966062;28;20035;-79
2021/06/05 14:03:06;;;;;;;;;;;23.40;99.90;;;;;;4972690;28;20026;-79
2021/06/05 14:05:32;;;;;;;;;;;23.10;99.90;;;;;;4976902;28;20038;-78
2021/06/05 14:07:57;;;;;;;0.60;0.30;;;23.10;99.90;;;;;;5009674;28;20062;-78
2021/06/05 14:10:24;;;;;;;2.23;1.07;;;23.40;99.90;;;;;;4977932;28;20031;-78